createdAt,value
2018-09-05T00:01:46.803Z,9.20
2018-09-05T00:04:15.223Z,9.68
2018-09-05T00:06:43.656Z,9.08
2018-09-05T00:09:12.016Z,9.90
2018-09-05T00:11:40.526Z,9.10
2018-09-05T00:14:08.968Z,8.03
2018-09-05T00:16:37.655Z,7.67
2018-09-05T00:19:05.950Z,7.78
2018-09-05T00:21:34.125Z,7.00
2018-09-05T00:24:02.292Z,9.48
2018-09-05T00:26:29.765Z,11.65
2018-09-05T00:28:57.437Z,9.53
2018-09-05T00:31:25.024Z,10.58
2018-09-05T00:33:52.609Z,8.15
2018-09-05T00:36:20.128Z,8.98
2018-09-05T00:38:48.093Z,9.93
2018-09-05T00:41:15.661Z,10.23
2018-09-05T00:43:43.332Z,14.90
2018-09-05T00:46:11.039Z,10.70
2018-09-05T00:48:39.239Z,10.47
2018-09-05T00:51:07.222Z,11.35
2018-09-05T00:53:35.076Z,13.17
2018-09-05T00:56:02.760Z,13.40
2018-09-05T00:58:30.715Z,14.90
2018-09-05T01:00:58.300Z,13.23
2018-09-05T01:03:26.125Z,17.32
2018-09-05T01:05:53.818Z,13.88
2018-09-05T01:08:21.925Z,11.45
2018-09-05T01:10:49.648Z,14.93
2018-09-05T01:13:17.328Z,13.72
2018-09-05T01:15:45.171Z,13.03
2018-09-05T01:18:12.946Z,15.23
2018-09-05T01:20:40.438Z,14.75
2018-09-05T01:23:08.236Z,13.78
2018-09-05T01:25:35.953Z,13.28
2018-09-05T01:28:03.482Z,17.40
2018-09-05T01:30:31.228Z,16.42
2018-09-05T01:32:59.666Z,19.35
2018-09-05T01:35:27.545Z,17.35
2018-09-05T01:37:55.667Z,16.67
2018-09-05T01:40:23.238Z,17.40
2018-09-05T01:42:51.284Z,16.95
2018-09-05T01:45:19.092Z,18.90
2018-09-05T01:47:46.611Z,17.65
2018-09-05T01:50:14.230Z,20.82
2018-09-05T01:52:41.857Z,20.88
2018-09-05T01:55:09.746Z,19.87
2018-09-05T01:57:37.197Z,22.27
2018-09-05T02:00:05.841Z,23.77
2018-09-05T02:02:33.417Z,20.90
2018-09-05T02:05:01.157Z,21.40
2018-09-05T02:07:28.839Z,22.87
2018-09-05T02:09:56.296Z,23.40
2018-09-05T02:12:24.151Z,23.92
2018-09-05T02:14:51.916Z,21.33
2018-09-05T02:17:19.615Z,22.10
2018-09-05T02:19:47.182Z,23.00
2018-09-05T02:22:15.104Z,20.87
2018-09-05T02:24:42.852Z,20.57
2018-09-05T02:27:10.740Z,18.92
2018-09-05T02:29:38.465Z,20.92
2018-09-05T02:32:06.000Z,20.32
2018-09-05T02:34:33.997Z,17.70
2018-09-05T02:37:01.977Z,19.60
2018-09-05T02:39:29.799Z,16.73
2018-09-05T02:41:57.388Z,15.85
2018-09-05T02:44:24.993Z,17.07
2018-09-05T02:46:53.333Z,18.23
2018-09-05T02:49:20.968Z,16.45
2018-09-05T02:51:48.601Z,17.90
2018-09-05T02:54:16.844Z,19.62
2018-09-05T02:56:45.101Z,16.10
2018-09-05T02:59:12.815Z,17.20
2018-09-05T03:01:40.435Z,20.90
2018-09-05T03:04:07.893Z,21.95
2018-09-05T03:06:36.108Z,17.50
2018-09-05T03:09:04.997Z,17.65
2018-09-05T03:11:33.067Z,21.90
2018-09-05T03:14:01.246Z,17.92
2018-09-05T03:16:28.952Z,16.93
2018-09-05T03:18:56.406Z,16.82
2018-09-05T03:21:24.240Z,16.97
2018-09-05T03:23:51.813Z,16.85
2018-09-05T03:26:19.460Z,15.60
2018-09-05T03:28:47.564Z,16.65
2018-09-05T03:31:15.192Z,17.07
2018-09-05T03:33:43.480Z,23.50
2018-09-05T03:36:11.185Z,17.23
2018-09-05T03:38:39.541Z,16.00
2018-09-05T03:41:07.175Z,19.90
2018-09-05T03:43:35.138Z,21.27
2018-09-05T03:46:02.876Z,17.70
2018-09-05T03:48:31.520Z,19.65
2018-09-05T03:50:59.261Z,20.27
2018-09-05T03:53:27.629Z,18.55
2018-09-05T03:55:55.985Z,20.12
2018-09-05T03:58:23.873Z,18.23
2018-09-05T04:00:51.355Z,17.40
2018-09-05T04:03:19.637Z,19.85
2018-09-05T04:05:47.727Z,18.70
2018-09-05T04:08:15.204Z,15.40
2018-09-05T04:10:43.145Z,15.58
2018-09-05T04:13:10.816Z,16.70
2018-09-05T04:15:38.932Z,16.25
2018-09-05T04:18:07.433Z,17.85
2018-09-05T04:20:34.953Z,20.63
2018-09-05T04:23:02.997Z,20.23
2018-09-05T04:25:30.733Z,17.40
2018-09-05T04:27:58.292Z,16.15
2018-09-05T04:30:25.939Z,24.90
2018-09-05T04:32:53.408Z,21.80
2018-09-05T04:35:21.031Z,18.00
2018-09-05T04:37:49.856Z,15.38
2018-09-05T04:40:17.819Z,19.12
2018-09-05T04:42:45.554Z,21.80
2018-09-05T04:45:13.306Z,19.82
2018-09-05T04:47:40.736Z,17.87
2018-09-05T04:50:08.341Z,25.45
2018-09-05T04:52:36.227Z,16.00
2018-09-05T04:55:03.857Z,17.60
2018-09-05T04:57:31.863Z,15.38
2018-09-05T04:59:59.953Z,17.90
2018-09-05T05:02:27.776Z,18.37
2018-09-05T05:04:55.768Z,18.32
2018-09-05T05:07:23.692Z,17.15
2018-09-05T05:09:51.338Z,19.40
2018-09-05T05:12:19.664Z,17.85
2018-09-05T05:14:47.364Z,17.90
2018-09-05T05:17:14.972Z,18.15
2018-09-05T05:19:42.949Z,18.40
2018-09-05T05:22:10.999Z,17.37
2018-09-05T05:24:39.303Z,18.37
2018-09-05T05:27:07.200Z,20.80
2018-09-05T05:29:34.846Z,15.45
2018-09-05T05:32:03.420Z,19.20
2018-09-05T05:34:32.443Z,17.45
2018-09-05T05:37:00.043Z,21.33
2018-09-05T05:39:28.999Z,21.00
2018-09-05T05:41:56.672Z,18.25
2018-09-05T05:44:24.236Z,17.12
2018-09-05T05:46:51.833Z,19.70
2018-09-05T05:49:19.472Z,17.65
2018-09-05T05:51:46.945Z,19.07
2018-09-05T05:54:14.768Z,17.57
2018-09-05T05:56:42.949Z,18.87
2018-09-05T05:59:10.557Z,19.40
2018-09-05T06:01:38.272Z,18.55
2018-09-05T06:04:05.824Z,16.67
2018-09-05T06:06:33.536Z,16.25
2018-09-05T06:09:01.181Z,16.52
2018-09-05T06:11:28.784Z,16.60
2018-09-05T06:13:57.382Z,17.42
2018-09-05T06:16:25.017Z,17.35
2018-09-05T06:18:52.522Z,16.37
2018-09-05T06:21:20.124Z,14.25
2018-09-05T06:23:47.735Z,16.17
2018-09-05T06:26:15.713Z,15.63
2018-09-05T06:28:43.159Z,16.80
2018-09-05T06:31:11.139Z,14.45
2018-09-05T06:33:38.635Z,18.33
2018-09-05T06:36:06.359Z,15.25
2018-09-05T06:38:33.820Z,15.90
2018-09-05T06:41:01.400Z,17.00
2018-09-05T06:43:29.505Z,15.83
2018-09-05T06:45:57.000Z,14.47
2018-09-05T06:48:24.449Z,14.87
2018-09-05T06:50:56.380Z,12.70
2018-09-05T06:53:24.000Z,15.30
2018-09-05T06:55:52.080Z,17.23
2018-09-05T06:58:19.802Z,14.35
2018-09-05T07:00:47.408Z,10.95
2018-09-05T07:03:15.246Z,11.03
2018-09-05T07:05:43.816Z,11.45
2018-09-05T07:08:11.505Z,12.58
2018-09-05T07:10:40.188Z,15.58
2018-09-05T07:13:09.189Z,12.05
2018-09-05T07:15:37.149Z,10.40
2018-09-05T07:18:04.924Z,11.50
2018-09-05T07:20:32.646Z,11.60
2018-09-05T07:23:00.486Z,10.00
2018-09-05T07:25:28.020Z,11.80
2018-09-05T07:27:55.709Z,10.93
2018-09-05T07:30:23.388Z,9.43
2018-09-05T07:32:51.093Z,10.30
2018-09-05T07:35:18.697Z,8.60
2018-09-05T07:37:46.336Z,8.78
2018-09-05T07:40:14.185Z,8.23
2018-09-05T07:42:41.976Z,11.00
2018-09-05T07:45:09.905Z,9.78
2018-09-05T07:47:37.670Z,10.58
2018-09-05T07:50:05.515Z,9.40
2018-09-05T07:52:33.241Z,8.40
2018-09-05T07:55:00.831Z,9.33
2018-09-05T07:57:28.485Z,9.70
2018-09-05T07:59:56.248Z,10.53
2018-09-05T08:02:23.716Z,9.35
2018-09-05T08:04:51.273Z,14.83
2018-09-05T08:07:18.715Z,11.63
2018-09-05T08:09:46.309Z,14.65
2018-09-05T08:12:14.952Z,10.15
2018-09-05T08:14:42.495Z,10.45
2018-09-05T08:17:10.483Z,9.13
2018-09-05T08:19:38.238Z,8.93
2018-09-05T08:22:06.189Z,8.50
2018-09-05T08:24:34.348Z,9.53
2018-09-05T08:27:02.166Z,7.87
2018-09-05T08:29:31.252Z,9.05
2018-09-05T08:34:38.585Z,7.78
2018-09-05T08:37:06.360Z,8.45
2018-09-05T08:39:33.610Z,8.40
2018-09-05T08:42:01.209Z,7.30
2018-09-05T08:44:29.451Z,6.40
2018-09-05T08:46:56.870Z,9.78
2018-09-05T08:49:24.608Z,15.18
2018-09-05T08:51:52.092Z,20.90
2018-09-05T08:54:19.639Z,8.65
2018-09-05T08:56:47.604Z,6.60
2018-09-05T08:59:15.272Z,10.72
2018-09-05T09:01:43.265Z,8.90
2018-09-05T09:04:11.341Z,12.03
2018-09-05T09:06:39.477Z,23.13
2018-09-05T09:09:08.009Z,11.43
2018-09-05T09:11:35.731Z,21.45
2018-09-05T09:14:03.417Z,16.67
2018-09-05T09:16:31.240Z,14.98
2018-09-05T09:18:59.085Z,12.25
2018-09-05T09:21:26.638Z,11.63
2018-09-05T09:23:54.084Z,8.30
2018-09-05T09:26:22.207Z,10.43
2018-09-05T09:28:50.484Z,10.48
2018-09-05T09:31:18.379Z,9.30
2018-09-05T09:33:46.273Z,6.90
2018-09-05T09:36:14.098Z,6.20
2018-09-05T09:38:42.965Z,5.97
2018-09-05T09:41:10.605Z,6.05
2018-09-05T09:43:38.268Z,8.55
2018-09-05T09:46:06.201Z,5.85
2018-09-05T09:48:34.200Z,7.47
2018-09-05T09:51:01.900Z,6.87
2018-09-05T09:53:29.924Z,8.60
2018-09-05T09:55:57.356Z,6.97
2018-09-05T09:58:25.504Z,6.70
2018-09-05T10:00:58.701Z,4.95
2018-09-05T10:03:32.433Z,7.17
2018-09-05T10:06:05.341Z,8.53
2018-09-05T10:09:35.926Z,9.95
2018-09-05T10:12:09.115Z,5.55
2018-09-05T10:14:37.056Z,7.53
2018-09-05T10:17:10.086Z,7.50
2018-09-05T10:19:37.537Z,28.42
2018-09-05T10:22:04.964Z,10.63
2018-09-05T10:24:32.524Z,5.42
2018-09-05T10:26:59.966Z,6.65
2018-09-05T10:29:27.652Z,4.05
2018-09-05T10:31:55.384Z,7.83
2018-09-05T10:34:23.007Z,27.67
2018-09-05T10:36:50.628Z,83.15
2018-09-05T10:39:18.373Z,103.90
2018-09-05T10:41:46.481Z,42.38
2018-09-05T10:44:14.258Z,17.67
2018-09-05T10:46:42.302Z,12.58
2018-09-05T10:49:10.393Z,18.17
2018-09-05T10:51:43.776Z,15.40
2018-09-05T10:54:11.680Z,11.40
2018-09-05T10:56:39.355Z,10.70
2018-09-05T10:59:06.888Z,11.00
2018-09-05T11:01:34.442Z,7.65
2018-09-05T11:04:01.973Z,6.40
2018-09-05T11:06:29.659Z,11.40
2018-09-05T11:08:57.375Z,6.60
2018-09-05T11:11:25.069Z,6.37
2018-09-05T11:13:52.523Z,7.05
2018-09-05T11:16:20.052Z,41.48
2018-09-05T11:18:47.783Z,23.43
2018-09-05T11:21:15.379Z,7.53
2018-09-05T11:23:43.344Z,6.55
2018-09-05T11:26:10.985Z,8.53
2018-09-05T11:28:38.528Z,12.53
2018-09-05T11:31:06.612Z,15.17
2018-09-05T11:33:34.075Z,9.93
2018-09-05T11:36:01.564Z,14.45
2018-09-05T11:38:29.052Z,11.97
2018-09-05T11:40:56.612Z,9.20
2018-09-05T11:43:24.518Z,13.78
2018-09-05T11:45:52.566Z,11.15
2018-09-05T11:48:20.291Z,13.90
2018-09-05T11:50:47.833Z,12.37
2018-09-05T11:53:15.504Z,18.20
2018-09-05T11:55:43.029Z,16.20
2018-09-05T11:58:10.588Z,46.85
2018-09-05T12:00:38.152Z,53.23
2018-09-05T12:03:05.689Z,51.37
2018-09-05T12:05:33.157Z,15.05
2018-09-05T12:08:01.264Z,19.52
2018-09-05T12:10:28.840Z,43.03
2018-09-05T12:12:56.560Z,54.30
2018-09-05T12:15:24.531Z,53.92
2018-09-05T12:17:52.261Z,18.32
2018-09-05T12:20:19.883Z,9.50
2018-09-05T12:22:47.484Z,13.13
2018-09-05T12:25:15.028Z,15.60
2018-09-05T12:27:42.781Z,13.18
2018-09-05T12:30:10.489Z,13.80
2018-09-05T12:32:38.388Z,7.87
2018-09-05T12:35:05.881Z,8.80
2018-09-05T12:37:33.701Z,9.18
2018-09-05T12:40:01.342Z,9.35
2018-09-05T12:42:28.836Z,10.10
2018-09-05T12:44:56.411Z,10.38
2018-09-05T12:47:23.928Z,9.70
2018-09-05T12:49:51.633Z,11.70
2018-09-05T12:52:19.114Z,8.07
2018-09-05T12:54:47.022Z,7.00
2018-09-05T12:57:15.567Z,8.40
2018-09-05T12:59:43.363Z,10.00
2018-09-05T13:02:11.155Z,10.65
2018-09-05T13:04:40.456Z,8.85
2018-09-05T13:07:08.276Z,8.20
2018-09-05T13:09:37.561Z,10.00
2018-09-05T13:12:06.015Z,9.27
2018-09-05T13:14:33.752Z,8.50
2018-09-05T13:17:02.104Z,10.50
2018-09-05T13:19:30.931Z,7.80
2018-09-05T13:22:11.725Z,8.63
2018-09-05T13:24:39.293Z,6.83
2018-09-05T13:27:07.531Z,8.38
2018-09-05T13:29:35.103Z,9.38
2018-09-05T13:32:03.361Z,4.20
2018-09-05T13:34:31.776Z,5.53
2018-09-05T13:36:59.443Z,4.10
2018-09-05T13:39:27.195Z,4.80
2018-09-05T13:41:54.858Z,3.50
2018-09-05T13:44:22.271Z,6.22
2018-09-05T13:46:49.797Z,5.70
2018-09-05T13:49:17.443Z,5.58
2018-09-05T13:51:49.343Z,6.50
2018-09-05T13:54:16.869Z,5.70
2018-09-05T13:56:44.458Z,7.20
2018-09-05T13:59:11.979Z,20.40
2018-09-05T14:01:39.935Z,6.93
2018-09-05T14:04:07.539Z,6.60
2018-09-05T14:06:34.997Z,9.90
2018-09-05T14:09:03.158Z,7.50
2018-09-05T14:11:30.628Z,7.97
2018-09-05T14:13:58.165Z,4.87
2018-09-05T14:16:25.660Z,5.13
2018-09-05T14:18:53.159Z,7.70
2018-09-05T14:21:20.627Z,6.00
2018-09-05T14:23:48.396Z,7.90
2018-09-05T14:26:16.260Z,9.88
2018-09-05T14:28:43.859Z,6.85
2018-09-05T14:31:11.436Z,8.00
2018-09-05T14:33:39.163Z,6.40
2018-09-05T14:36:06.915Z,5.37
2018-09-05T14:38:34.436Z,4.90
2018-09-05T14:41:02.106Z,4.30
2018-09-05T14:43:29.779Z,5.75
2018-09-05T14:45:57.649Z,7.12
2018-09-05T14:48:25.332Z,5.47
2018-09-05T14:50:53.225Z,5.10
2018-09-05T14:53:20.808Z,6.08
2018-09-05T14:55:48.261Z,4.17
2018-09-05T14:58:15.806Z,5.92
2018-09-05T15:00:43.621Z,7.12
2018-09-05T15:03:11.239Z,7.12
2018-09-05T15:05:38.697Z,5.67
2018-09-05T15:08:07.329Z,5.00
2018-09-05T15:13:09.403Z,5.40
2018-09-05T15:15:37.184Z,7.93
2018-09-05T15:18:05.249Z,6.85
2018-09-05T15:20:33.117Z,6.03
2018-09-05T15:23:00.987Z,5.22
2018-09-05T15:25:28.603Z,4.00
2018-09-05T15:27:56.584Z,9.88
2018-09-05T15:30:24.812Z,7.45
2018-09-05T15:32:52.384Z,7.33
2018-09-05T15:35:19.914Z,6.60
2018-09-05T15:37:47.646Z,7.78
2018-09-05T15:40:15.339Z,5.33
2018-09-05T15:42:43.067Z,6.40
2018-09-05T15:45:13.473Z,8.37
2018-09-05T15:47:40.989Z,5.93
2018-09-05T15:50:08.529Z,6.95
2018-09-05T15:52:36.220Z,6.33
2018-09-05T15:55:04.004Z,9.20
2018-09-05T15:57:32.341Z,6.00
2018-09-05T16:00:00.105Z,7.73
2018-09-05T16:02:27.670Z,8.08
2018-09-05T16:04:55.464Z,5.28
2018-09-05T16:07:23.409Z,10.82
2018-09-05T16:09:51.076Z,8.60
2018-09-05T16:12:18.832Z,5.80
2018-09-05T16:14:47.423Z,5.35
2018-09-05T16:17:17.792Z,5.08
2018-09-05T16:19:46.753Z,5.62
2018-09-05T16:22:15.116Z,5.73
2018-09-05T16:24:43.090Z,5.70
2018-09-05T16:27:11.470Z,6.50
2018-09-05T16:29:47.601Z,9.20
2018-09-05T16:32:18.829Z,5.78
2018-09-05T16:34:49.623Z,8.20
2018-09-05T16:37:23.592Z,5.50
2018-09-05T16:39:52.691Z,6.50
2018-09-05T16:42:20.340Z,6.70
2018-09-05T16:44:49.002Z,7.40
2018-09-05T16:47:18.352Z,11.80
2018-09-05T16:49:45.981Z,8.20
2018-09-05T16:52:15.058Z,9.30
2018-09-05T16:54:46.787Z,5.60
2018-09-05T16:57:17.801Z,4.83
2018-09-05T16:59:48.902Z,5.70
2018-09-05T17:02:21.341Z,6.00
2018-09-05T17:04:53.987Z,6.30
2018-09-05T17:07:23.504Z,11.33
2018-09-05T17:09:54.601Z,6.85
2018-09-05T17:12:25.097Z,8.13
2018-09-05T17:14:55.053Z,5.70
2018-09-05T17:17:26.303Z,8.18
2018-09-05T17:19:54.090Z,5.17
2018-09-05T17:22:22.645Z,7.00
2018-09-05T17:24:53.222Z,8.20
2018-09-05T17:27:21.649Z,6.43
2018-09-05T17:29:50.043Z,8.20
2018-09-05T17:32:20.415Z,5.80
2018-09-05T17:34:52.119Z,6.17
2018-09-05T17:37:20.553Z,5.75
2018-09-05T17:39:48.049Z,9.80
2018-09-05T17:42:16.412Z,8.73
2018-09-05T17:44:45.320Z,6.55
2018-09-05T17:47:14.367Z,9.47
2018-09-05T17:49:42.460Z,9.73
2018-09-05T17:52:11.253Z,6.00
2018-09-05T17:54:38.937Z,5.67
2018-09-05T17:57:07.501Z,5.65
2018-09-05T17:59:37.389Z,6.62
2018-09-05T18:02:05.580Z,6.35
2018-09-05T18:04:33.034Z,7.80
2018-09-05T18:07:00.503Z,10.72
2018-09-05T18:09:28.245Z,9.83
2018-09-05T18:11:55.775Z,12.50
2018-09-05T18:14:23.843Z,7.60
2018-09-05T18:16:51.385Z,8.45
2018-09-05T18:19:18.897Z,8.08
2018-09-05T18:21:46.480Z,8.63
2018-09-05T18:24:14.181Z,11.90
2018-09-05T18:26:41.864Z,8.73
2018-09-05T18:29:10.180Z,9.20
2018-09-05T18:31:38.017Z,7.50
2018-09-05T18:34:05.815Z,10.33
2018-09-05T18:36:34.149Z,7.78
2018-09-05T18:39:02.008Z,6.85
2018-09-05T18:41:29.724Z,7.22
2018-09-05T18:43:57.271Z,9.23
2018-09-05T18:46:25.043Z,10.03
2018-09-05T18:48:53.122Z,7.50
2018-09-05T18:51:21.104Z,4.78
2018-09-05T18:53:48.726Z,5.00
2018-09-05T18:56:16.812Z,4.00
2018-09-05T18:58:44.748Z,6.30
2018-09-05T19:01:12.281Z,5.33
2018-09-05T19:03:40.208Z,5.15
2018-09-05T19:06:07.703Z,10.10
2018-09-05T19:08:35.492Z,8.40
2018-09-05T19:11:02.968Z,6.90
2018-09-05T19:13:30.747Z,5.65
2018-09-05T19:15:58.396Z,5.67
2018-09-05T19:18:25.947Z,7.95
2018-09-05T19:20:53.628Z,6.20
2018-09-05T19:23:21.150Z,5.50
2018-09-05T19:25:48.632Z,5.33
2018-09-05T19:28:16.149Z,10.65
2018-09-05T19:30:43.605Z,6.20
2018-09-05T19:33:11.253Z,5.63
2018-09-05T19:35:39.164Z,6.78
2018-09-05T19:38:06.982Z,8.80
2018-09-05T19:40:34.967Z,4.85
2018-09-05T19:43:02.632Z,5.50
2018-09-05T19:45:30.216Z,9.83
2018-09-05T19:47:57.680Z,4.70
2018-09-05T19:50:25.207Z,6.20
2018-09-05T19:52:52.767Z,6.53
2018-09-05T19:55:20.365Z,5.10
2018-09-05T19:57:48.375Z,4.80
2018-09-05T20:00:17.238Z,4.87
2018-09-05T20:02:45.455Z,7.75
2018-09-05T20:05:13.610Z,4.78
2018-09-05T20:07:41.301Z,5.43
2018-09-05T20:10:09.022Z,6.37
2018-09-05T20:12:38.248Z,4.20
2018-09-05T20:15:06.321Z,6.12
2018-09-05T20:17:33.921Z,4.43
2018-09-05T20:20:01.497Z,6.42
2018-09-05T20:22:29.400Z,5.62
2018-09-05T20:24:57.782Z,5.70
2018-09-05T20:27:25.297Z,4.95
2018-09-05T20:29:52.895Z,5.70
2018-09-05T20:32:20.421Z,6.80
2018-09-05T20:34:48.167Z,5.00
2018-09-05T20:37:15.699Z,4.62
2018-09-05T20:39:43.286Z,5.50
2018-09-05T20:42:10.749Z,8.60
2018-09-05T20:44:38.472Z,4.72
2018-09-05T20:47:05.992Z,6.05
2018-09-05T20:49:34.038Z,5.10
2018-09-05T20:52:01.632Z,10.03
2018-09-05T20:54:29.414Z,5.42
2018-09-05T20:56:57.323Z,5.20
2018-09-05T20:59:25.452Z,6.72
2018-09-05T21:01:53.410Z,5.55
2018-09-05T21:04:21.500Z,5.22
2018-09-05T21:06:49.072Z,7.17
2018-09-05T21:09:16.916Z,6.40
2018-09-05T21:11:45.240Z,4.10
2018-09-05T21:14:13.574Z,5.30
2018-09-05T21:16:41.328Z,4.67
2018-09-05T21:19:09.331Z,5.35
2018-09-05T21:21:37.199Z,4.90
2018-09-05T21:24:05.068Z,6.12
2018-09-05T21:26:32.719Z,5.12
2018-09-05T21:29:00.595Z,5.70
2018-09-05T21:31:28.319Z,7.30
2018-09-05T21:33:55.935Z,5.50
2018-09-05T21:36:23.772Z,8.40
2018-09-05T21:38:51.685Z,5.50
2018-09-05T21:41:19.932Z,6.23
2018-09-05T21:43:47.796Z,5.17
2018-09-05T21:46:15.921Z,7.58
2018-09-05T21:48:44.150Z,6.00
2018-09-05T21:51:12.140Z,6.47
2018-09-05T21:53:40.734Z,6.55
2018-09-05T21:56:08.349Z,10.40
2018-09-05T21:58:36.435Z,6.40
2018-09-05T22:01:04.204Z,5.60
2018-09-05T22:03:31.964Z,6.80
2018-09-05T22:05:59.581Z,6.58
2018-09-05T22:08:27.436Z,6.60
2018-09-05T22:10:55.004Z,12.45
2018-09-05T22:13:22.719Z,6.87
2018-09-05T22:15:50.175Z,6.72
2018-09-05T22:18:18.441Z,7.50
2018-09-05T22:20:46.733Z,8.43
2018-09-05T22:23:14.595Z,5.83
2018-09-05T22:25:43.616Z,6.50
2018-09-05T22:28:12.780Z,5.60
2018-09-05T22:30:42.639Z,6.85
2018-09-05T22:33:10.764Z,5.90
2018-09-05T22:35:38.581Z,9.10
2018-09-05T22:38:06.238Z,8.40
2018-09-05T22:40:39.341Z,10.68
2018-09-05T22:43:12.419Z,10.68
2018-09-05T22:45:46.007Z,8.23
2018-09-05T22:48:24.457Z,6.28
2018-09-05T22:52:07.089Z,9.00
2018-09-05T22:54:45.541Z,7.83
2018-09-05T22:59:21.723Z,7.30
2018-09-05T23:01:54.595Z,9.80
2018-09-05T23:04:30.810Z,6.28
2018-09-05T23:07:05.882Z,7.80
2018-09-05T23:09:39.040Z,12.60
2018-09-05T23:12:24.575Z,9.05
2018-09-05T23:14:58.238Z,12.82
2018-09-05T23:17:31.363Z,8.90
2018-09-05T23:20:02.523Z,9.53
2018-09-05T23:22:35.407Z,7.90
2018-09-05T23:25:03.452Z,8.70
2018-09-05T23:27:31.449Z,12.50
2018-09-05T23:29:59.507Z,10.43
2018-09-05T23:32:27.091Z,12.93
2018-09-05T23:34:54.660Z,9.20
2018-09-05T23:37:22.448Z,8.85
2018-09-05T23:39:50.159Z,11.30
2018-09-05T23:42:18.073Z,10.23
2018-09-05T23:44:45.628Z,10.35
2018-09-05T23:47:13.293Z,8.88
2018-09-05T23:49:41.117Z,10.05
2018-09-05T23:52:08.739Z,10.65
2018-09-05T23:54:36.847Z,11.78
2018-09-05T23:57:04.740Z,10.18
2018-09-05T23:59:32.336Z,10.97
